Terminal Aerodrome Forecast
Issued by NWS Sterling, VA

Current Version | Previous Version | Graphics & Text | Print | Product List | Glossary On
Versions: 1 2 3 4 5 6 7 8 9 10 11 12 13 14 15 16 17 18 19 20 21 22 23 24 25 26 27 28 29 30
000
FTUS41 KLWX 031434 AAA
TAFIAD
TAF AMD
KIAD 031434Z 0315/0418 13004KT P6SM SCT050 BKN140
     FM032100 15008KT P6SM SCT050 OVC060
     FM040100 13006KT P6SM -SHRA OVC050
     FM040400 13007KT 3SM -SHRA BR OVC040
     FM041400 30005KT 5SM -SHRA BR OVC015=

USA.gov is the U.S. government's official web portal to all federal, state and local government web resources and services.